sensor_id;sensor_type;location;lat;lon;timestamp;pressure;altitude;pressure_sealevel;temperature;humidity
62655;BME280;48717;55.556;37.816;2023-07-20T00:00:59;98067.16;;;13.13;85.18
62655;BME280;48717;55.556;37.816;2023-07-20T00:03:27;98047.97;;;13.08;85.44
62655;BME280;48717;55.556;37.816;2023-07-20T00:05:54;98064.88;;;13.03;85.58
62655;BME280;48717;55.556;37.816;2023-07-20T00:08:21;98061.41;;;13.01;85.59
62655;BME280;48717;55.556;37.816;2023-07-20T00:10:48;98056.47;;;12.92;85.61
62655;BME280;48717;55.556;37.816;2023-07-20T00:13:15;98055.56;;;12.93;85.67
62655;BME280;48717;55.556;37.816;2023-07-20T00:15:42;98035.75;;;12.81;85.52
62655;BME280;48717;55.556;37.816;2023-07-20T00:18:10;98060.75;;;12.96;86.11
62655;BME280;48717;55.556;37.816;2023-07-20T00:20:37;98063.69;;;12.88;86.39
62655;BME280;48717;55.556;37.816;2023-07-20T00:23:04;98049.16;;;12.76;86.29
62655;BME280;48717;55.556;37.816;2023-07-20T00:25:32;98040.56;;;12.71;86.41
62655;BME280;48717;55.556;37.816;2023-07-20T00:28:01;98066.34;;;12.88;86.86
62655;BME280;48717;55.556;37.816;2023-07-20T00:30:28;98066.00;;;12.74;87.02
62655;BME280;48717;55.556;37.816;2023-07-20T00:32:56;98053.78;;;12.71;86.93
62655;BME280;48717;55.556;37.816;2023-07-20T00:35:23;98056.41;;;12.71;87.39
62655;BME280;48717;55.556;37.816;2023-07-20T00:37:50;98068.72;;;12.72;87.27
62655;BME280;48717;55.556;37.816;2023-07-20T00:40:17;98077.44;;;12.74;87.60
62655;BME280;48717;55.556;37.816;2023-07-20T00:42:45;98069.63;;;12.71;87.43
62655;BME280;48717;55.556;37.816;2023-07-20T00:45:12;98077.69;;;12.68;87.81
62655;BME280;48717;55.556;37.816;2023-07-20T00:47:40;98083.75;;;12.70;87.78
62655;BME280;48717;55.556;37.816;2023-07-20T00:50:09;98039.63;;;12.48;87.85
62655;BME280;48717;55.556;37.816;2023-07-20T00:52:37;98075.97;;;12.67;87.80
62655;BME280;48717;55.556;37.816;2023-07-20T00:55:09;98052.84;;;12.48;87.74
62655;BME280;48717;55.556;37.816;2023-07-20T00:57:36;98081.34;;;12.64;88.04
62655;BME280;48717;55.556;37.816;2023-07-20T01:00:06;98033.88;;;12.37;87.96
62655;BME280;48717;55.556;37.816;2023-07-20T01:02:33;98051.13;;;12.47;88.61
62655;BME280;48717;55.556;37.816;2023-07-20T01:05:01;98070.34;;;12.51;88.55
62655;BME280;48717;55.556;37.816;2023-07-20T01:07:36;98052.16;;;12.43;88.29
62655;BME280;48717;55.556;37.816;2023-07-20T01:12:51;98075.72;;;12.49;88.89
62655;BME280;48717;55.556;37.816;2023-07-20T01:15:19;98077.34;;;12.53;89.05
62655;BME280;48717;55.556;37.816;2023-07-20T01:17:46;98061.09;;;12.39;89.22
62655;BME280;48717;55.556;37.816;2023-07-20T01:20:15;98077.59;;;12.46;89.35
62655;BME280;48717;55.556;37.816;2023-07-20T01:26:02;98069.72;;;12.44;89.47
62655;BME280;48717;55.556;37.816;2023-07-20T01:28:40;98076.88;;;12.42;89.61
62655;BME280;48717;55.556;37.816;2023-07-20T01:31:20;98083.13;;;12.39;89.76
62655;BME280;48717;55.556;37.816;2023-07-20T01:33:49;98071.81;;;12.36;90.28
62655;BME280;48717;55.556;37.816;2023-07-20T01:36:17;98078.69;;;12.40;90.17
62655;BME280;48717;55.556;37.816;2023-07-20T01:38:46;98065.00;;;12.29;90.34
62655;BME280;48717;55.556;37.816;2023-07-20T01:41:14;98082.25;;;12.39;90.38
62655;BME280;48717;55.556;37.816;2023-07-20T01:43:42;98081.41;;;12.38;90.39
62655;BME280;48717;55.556;37.816;2023-07-20T01:46:09;98074.38;;;12.37;90.37
62655;BME280;48717;55.556;37.816;2023-07-20T01:48:37;98074.38;;;12.37;90.92
62655;BME280;48717;55.556;37.816;2023-07-20T01:51:04;98058.13;;;12.24;90.84
62655;BME280;48717;55.556;37.816;2023-07-20T01:53:31;98087.66;;;12.36;90.75
62655;BME280;48717;55.556;37.816;2023-07-20T01:55:58;98068.59;;;12.27;90.41
62655;BME280;48717;55.556;37.816;2023-07-20T01:58:25;98070.41;;;12.25;90.69
62655;BME280;48717;55.556;37.816;2023-07-20T02:00:52;98079.09;;;12.29;91.42
62655;BME280;48717;55.556;37.816;2023-07-20T02:03:19;98072.88;;;12.30;91.36
62655;BME280;48717;55.556;37.816;2023-07-20T02:05:51;98075.59;;;12.29;91.34
62655;BME280;48717;55.556;37.816;2023-07-20T02:08:18;98080.97;;;12.25;91.30
62655;BME280;48717;55.556;37.816;2023-07-20T02:10:47;98079.91;;;12.31;91.37
62655;BME280;48717;55.556;37.816;2023-07-20T02:13:16;98079.25;;;12.24;91.63
62655;BME280;48717;55.556;37.816;2023-07-20T02:15:44;98092.97;;;12.36;91.38
62655;BME280;48717;55.556;37.816;2023-07-20T02:18:14;98066.09;;;12.23;91.46
62655;BME280;48717;55.556;37.816;2023-07-20T02:20:42;98089.44;;;12.35;90.86
62655;BME280;48717;55.556;37.816;2023-07-20T02:23:09;98088.47;;;12.38;91.58
62655;BME280;48717;55.556;37.816;2023-07-20T02:25:37;98065.13;;;12.25;91.14
62655;BME280;48717;55.556;37.816;2023-07-20T02:28:07;98093.59;;;12.43;91.42
62655;BME280;48717;55.556;37.816;2023-07-20T02:30:39;98097.91;;;12.45;91.06
62655;BME280;48717;55.556;37.816;2023-07-20T02:33:07;98100.53;;;12.45;91.43
62655;BME280;48717;55.556;37.816;2023-07-20T02:35:34;98099.72;;;12.43;90.92
62655;BME280;48717;55.556;37.816;2023-07-20T02:38:01;98082.38;;;12.36;90.80
62655;BME280;48717;55.556;37.816;2023-07-20T02:40:29;98105.88;;;12.44;91.20
62655;BME280;48717;55.556;37.816;2023-07-20T02:42:56;98080.53;;;12.38;91.07
62655;BME280;48717;55.556;37.816;2023-07-20T02:45:23;98103.00;;;12.50;90.78
62655;BME280;48717;55.556;37.816;2023-07-20T02:47:51;98103.81;;;12.52;90.70
62655;BME280;48717;55.556;37.816;2023-07-20T02:50:18;98085.38;;;12.50;90.36
62655;BME280;48717;55.556;37.816;2023-07-20T02:52:45;98093.41;;;12.47;90.29
62655;BME280;48717;55.556;37.816;2023-07-20T02:55:13;98111.38;;;12.63;90.63
62655;BME280;48717;55.556;37.816;2023-07-20T02:57:40;98091.59;;;12.49;90.14
62655;BME280;48717;55.556;37.816;2023-07-20T03:00:07;98088.75;;;12.54;90.96
62655;BME280;48717;55.556;37.816;2023-07-20T03:02:35;98092.38;;;12.51;89.53
62655;BME280;48717;55.556;37.816;2023-07-20T03:05:02;98112.97;;;12.67;89.51
62655;BME280;48717;55.556;37.816;2023-07-20T03:07:33;98119.63;;;12.77;89.76
62655;BME280;48717;55.556;37.816;2023-07-20T03:10:00;98111.81;;;12.74;89.45
62655;BME280;48717;55.556;37.816;2023-07-20T03:12:29;98091.06;;;12.63;89.13
62655;BME280;48717;55.556;37.816;2023-07-20T03:14:56;98103.66;;;12.81;89.17
62655;BME280;48717;55.556;37.816;2023-07-20T03:17:25;98096.75;;;12.76;89.10
62655;BME280;48717;55.556;37.816;2023-07-20T03:19:52;98129.63;;;12.93;88.30
62655;BME280;48717;55.556;37.816;2023-07-20T03:22:19;98137.41;;;12.98;88.88
62655;BME280;48717;55.556;37.816;2023-07-20T03:24:48;98129.31;;;13.02;88.39
62655;BME280;48717;55.556;37.816;2023-07-20T03:27:15;98105.81;;;12.93;87.95
62655;BME280;48717;55.556;37.816;2023-07-20T03:29:42;98109.28;;;12.95;88.06
62655;BME280;48717;55.556;37.816;2023-07-20T03:32:14;98128.13;;;13.10;87.81
62655;BME280;48717;55.556;37.816;2023-07-20T03:34:41;98126.03;;;13.18;87.71
62655;BME280;48717;55.556;37.816;2023-07-20T03:37:08;98113.06;;;13.12;87.53
62655;BME280;48717;55.556;37.816;2023-07-20T03:39:35;98129.16;;;13.29;87.05
62655;BME280;48717;55.556;37.816;2023-07-20T03:42:03;98126.25;;;13.36;86.45
62655;BME280;48717;55.556;37.816;2023-07-20T03:44:33;98117.53;;;13.34;86.20
62655;BME280;48717;55.556;37.816;2023-07-20T03:47:00;98113.69;;;13.41;85.99
62655;BME280;48717;55.556;37.816;2023-07-20T03:49:28;98047.28;;;13.02;85.11
62655;BME280;48717;55.556;37.816;2023-07-20T03:51:55;98103.97;;;13.41;86.25
62655;BME280;48717;55.556;37.816;2023-07-20T03:54:32;98116.69;;;13.55;85.04
62655;BME280;48717;55.556;37.816;2023-07-20T03:57:18;98116.53;;;13.58;84.93
62655;BME280;48717;55.556;37.816;2023-07-20T03:59:45;98126.31;;;13.79;84.82
62655;BME280;48717;55.556;37.816;2023-07-20T04:02:13;98129.72;;;13.82;83.70
62655;BME280;48717;55.556;37.816;2023-07-20T04:04:42;98096.72;;;13.69;83.29
62655;BME280;48717;55.556;37.816;2023-07-20T04:07:09;98117.25;;;13.84;82.83
62655;BME280;48717;55.556;37.816;2023-07-20T04:09:36;98099.38;;;13.90;82.74
62655;BME280;48717;55.556;37.816;2023-07-20T04:12:03;98114.22;;;13.94;82.06
62655;BME280;48717;55.556;37.816;2023-07-20T04:14:30;98121.38;;;14.13;80.93
62655;BME280;48717;55.556;37.816;2023-07-20T04:16:58;98112.38;;;14.17;81.32
62655;BME280;48717;55.556;37.816;2023-07-20T04:19:27;98129.94;;;14.40;80.28
62655;BME280;48717;55.556;37.816;2023-07-20T04:21:54;98123.28;;;14.51;79.55
62655;BME280;48717;55.556;37.816;2023-07-20T04:24:21;98112.59;;;14.52;78.03
62655;BME280;48717;55.556;37.816;2023-07-20T04:26:49;98145.91;;;14.80;77.58
62655;BME280;48717;55.556;37.816;2023-07-20T04:29:17;98145.63;;;14.86;77.70
62655;BME280;48717;55.556;37.816;2023-07-20T04:31:45;98145.47;;;14.90;76.64
62655;BME280;48717;55.556;37.816;2023-07-20T04:34:13;98132.47;;;14.83;76.36
62655;BME280;48717;55.556;37.816;2023-07-20T04:36:40;98126.63;;;14.96;76.72
62655;BME280;48717;55.556;37.816;2023-07-20T04:39:07;98138.34;;;14.90;75.67
62655;BME280;48717;55.556;37.816;2023-07-20T04:41:48;98065.81;;;14.51;75.70
62655;BME280;48717;55.556;37.816;2023-07-20T04:44:16;98118.38;;;14.83;75.83
62655;BME280;48717;55.556;37.816;2023-07-20T04:46:43;98138.81;;;15.00;76.46
62655;BME280;48717;55.556;37.816;2023-07-20T04:49:15;98134.94;;;15.07;76.15
62655;BME280;48717;55.556;37.816;2023-07-20T04:52:04;98139.69;;;15.20;76.41
62655;BME280;48717;55.556;37.816;2023-07-20T04:54:39;98132.19;;;15.28;74.73
62655;BME280;48717;55.556;37.816;2023-07-20T04:57:12;98134.22;;;15.23;75.18
62655;BME280;48717;55.556;37.816;2023-07-20T04:59:44;98143.19;;;15.39;74.80
62655;BME280;48717;55.556;37.816;2023-07-20T05:02:12;98151.63;;;15.48;74.71
62655;BME280;48717;55.556;37.816;2023-07-20T05:04:39;98109.63;;;15.56;74.05
62655;BME280;48717;55.556;37.816;2023-07-20T05:07:06;98126.75;;;16.05;73.40
62655;BME280;48717;55.556;37.816;2023-07-20T05:09:33;98148.28;;;16.69;70.61
62655;BME280;48717;55.556;37.816;2023-07-20T05:12:01;98108.13;;;16.74;68.72
62655;BME280;48717;55.556;37.816;2023-07-20T05:14:29;98144.59;;;17.06;65.41
62655;BME280;48717;55.556;37.816;2023-07-20T05:16:56;98152.25;;;17.12;64.70
62655;BME280;48717;55.556;37.816;2023-07-20T05:19:24;98138.78;;;17.47;63.85
62655;BME280;48717;55.556;37.816;2023-07-20T05:21:52;98130.34;;;17.55;62.90
62655;BME280;48717;55.556;37.816;2023-07-20T05:24:26;98141.34;;;17.65;62.06
62655;BME280;48717;55.556;37.816;2023-07-20T05:26:53;98119.25;;;17.47;60.96
62655;BME280;48717;55.556;37.816;2023-07-20T05:29:49;98150.56;;;17.90;60.59
62655;BME280;48717;55.556;37.816;2023-07-20T05:32:20;98147.13;;;18.04;59.67
62655;BME280;48717;55.556;37.816;2023-07-20T05:34:52;98133.50;;;18.25;58.78
62655;BME280;48717;55.556;37.816;2023-07-20T05:37:20;98128.47;;;18.35;58.50
62655;BME280;48717;55.556;37.816;2023-07-20T05:39:47;98112.38;;;18.51;57.22
62655;BME280;48717;55.556;37.816;2023-07-20T05:42:14;98128.88;;;19.01;56.46
62655;BME280;48717;55.556;37.816;2023-07-20T05:44:41;98137.59;;;19.05;55.78
62655;BME280;48717;55.556;37.816;2023-07-20T05:47:09;98143.28;;;19.28;55.77
62655;BME280;48717;55.556;37.816;2023-07-20T05:49:37;98136.34;;;19.11;54.26
62655;BME280;48717;55.556;37.816;2023-07-20T05:52:06;98143.75;;;19.05;54.85
62655;BME280;48717;55.556;37.816;2023-07-20T05:54:45;98153.91;;;19.15;53.25
62655;BME280;48717;55.556;37.816;2023-07-20T06:00:22;98141.53;;;19.41;53.75
62655;BME280;48717;55.556;37.816;2023-07-20T06:03:24;98138.59;;;19.31;51.88
62655;BME280;48717;55.556;37.816;2023-07-20T06:05:59;98149.94;;;19.77;51.32
62655;BME280;48717;55.556;37.816;2023-07-20T06:08:28;98112.63;;;20.29;49.71
62655;BME280;48717;55.556;37.816;2023-07-20T06:10:57;98108.44;;;19.85;50.24
62655;BME280;48717;55.556;37.816;2023-07-20T06:13:26;98139.84;;;20.49;49.98
62655;BME280;48717;55.556;37.816;2023-07-20T06:15:59;98144.78;;;20.68;49.14
62655;BME280;48717;55.556;37.816;2023-07-20T06:18:32;98141.75;;;20.73;47.85
62655;BME280;48717;55.556;37.816;2023-07-20T06:21:00;98078.34;;;20.60;47.36
62655;BME280;48717;55.556;37.816;2023-07-20T06:23:44;98145.31;;;21.50;45.67
62655;BME280;48717;55.556;37.816;2023-07-20T06:27:09;98139.09;;;21.49;44.58
62655;BME280;48717;55.556;37.816;2023-07-20T06:29:57;98104.13;;;21.51;42.88
62655;BME280;48717;55.556;37.816;2023-07-20T06:32:54;98147.75;;;21.90;42.12
62655;BME280;48717;55.556;37.816;2023-07-20T06:35:30;98147.75;;;21.16;42.74
62655;BME280;48717;55.556;37.816;2023-07-20T06:37:59;98104.78;;;21.04;42.59
62655;BME280;48717;55.556;37.816;2023-07-20T06:40:47;98085.50;;;20.99;42.23
62655;BME280;48717;55.556;37.816;2023-07-20T06:43:15;98157.19;;;21.08;42.15
62655;BME280;48717;55.556;37.816;2023-07-20T06:45:58;98142.97;;;20.95;42.01
62655;BME280;48717;55.556;37.816;2023-07-20T06:48:30;98143.84;;;21.46;40.54
62655;BME280;48717;55.556;37.816;2023-07-20T06:50:57;98136.31;;;22.36;40.49
62655;BME280;48717;55.556;37.816;2023-07-20T06:53:32;98111.19;;;22.37;38.93
62655;BME280;48717;55.556;37.816;2023-07-20T06:56:05;98146.06;;;22.84;39.55
62655;BME280;48717;55.556;37.816;2023-07-20T06:58:52;98154.38;;;23.38;38.04
62655;BME280;48717;55.556;37.816;2023-07-20T07:01:20;98119.44;;;24.15;37.63
62655;BME280;48717;55.556;37.816;2023-07-20T07:03:50;98140.66;;;25.03;36.76
62655;BME280;48717;55.556;37.816;2023-07-20T07:06:24;98140.97;;;25.00;35.34
62655;BME280;48717;55.556;37.816;2023-07-20T07:08:53;98024.75;;;24.72;34.76
62655;BME280;48717;55.556;37.816;2023-07-20T07:11:25;98153.59;;;24.79;34.55
62655;BME280;48717;55.556;37.816;2023-07-20T07:13:53;98141.25;;;24.12;35.65
62655;BME280;48717;55.556;37.816;2023-07-20T07:16:25;98133.63;;;24.17;35.85
62655;BME280;48717;55.556;37.816;2023-07-20T07:18:54;98149.19;;;23.58;36.62
62655;BME280;48717;55.556;37.816;2023-07-20T07:21:27;98129.94;;;23.07;36.72
62655;BME280;48717;55.556;37.816;2023-07-20T07:23:55;98162.94;;;23.20;37.18
62655;BME280;48717;55.556;37.816;2023-07-20T07:26:26;98160.50;;;23.06;37.08
62655;BME280;48717;55.556;37.816;2023-07-20T07:28:59;98163.09;;;23.86;37.21
62655;BME280;48717;55.556;37.816;2023-07-20T07:31:29;98147.78;;;24.83;35.25
62655;BME280;48717;55.556;37.816;2023-07-20T07:34:00;98148.00;;;25.93;33.19
62655;BME280;48717;55.556;37.816;2023-07-20T07:36:28;98155.28;;;26.13;32.75
62655;BME280;48717;55.556;37.816;2023-07-20T07:39:01;98142.03;;;25.70;33.74
62655;BME280;48717;55.556;37.816;2023-07-20T07:41:49;98167.78;;;24.38;34.88
62655;BME280;48717;55.556;37.816;2023-07-20T07:44:18;98137.19;;;23.73;35.54
62655;BME280;48717;55.556;37.816;2023-07-20T07:46:45;98168.19;;;23.89;36.06
62655;BME280;48717;55.556;37.816;2023-07-20T07:49:12;98165.94;;;24.06;35.27
62655;BME280;48717;55.556;37.816;2023-07-20T07:51:39;98131.97;;;23.93;36.32
62655;BME280;48717;55.556;37.816;2023-07-20T07:54:06;98162.50;;;24.15;35.83
62655;BME280;48717;55.556;37.816;2023-07-20T07:56:33;98172.16;;;23.73;35.60
62655;BME280;48717;55.556;37.816;2023-07-20T07:59:00;98153.63;;;23.25;35.98
62655;BME280;48717;55.556;37.816;2023-07-20T08:01:28;98151.09;;;23.90;35.87
62655;BME280;48717;55.556;37.816;2023-07-20T08:03:55;98168.50;;;24.40;34.47
62655;BME280;48717;55.556;37.816;2023-07-20T08:06:23;98134.13;;;24.11;33.49
62655;BME280;48717;55.556;37.816;2023-07-20T08:08:51;98166.03;;;23.71;35.00
62655;BME280;48717;55.556;37.816;2023-07-20T08:11:18;98127.66;;;23.69;34.49
62655;BME280;48717;55.556;37.816;2023-07-20T08:13:46;98174.91;;;23.95;34.93
62655;BME280;48717;55.556;37.816;2023-07-20T08:16:13;98179.53;;;24.16;34.27
62655;BME280;48717;55.556;37.816;2023-07-20T08:18:40;98167.53;;;24.84;34.04
62655;BME280;48717;55.556;37.816;2023-07-20T08:21:08;98152.66;;;24.68;34.05
62655;BME280;48717;55.556;37.816;2023-07-20T08:23:35;98135.84;;;24.76;34.28
62655;BME280;48717;55.556;37.816;2023-07-20T08:26:03;98159.66;;;24.92;34.70
62655;BME280;48717;55.556;37.816;2023-07-20T08:28:30;98173.03;;;24.18;34.99
62655;BME280;48717;55.556;37.816;2023-07-20T08:30:58;98164.31;;;24.69;34.15
62655;BME280;48717;55.556;37.816;2023-07-20T08:33:25;98145.25;;;23.73;34.67
62655;BME280;48717;55.556;37.816;2023-07-20T08:35:56;98184.41;;;23.66;35.80
62655;BME280;48717;55.556;37.816;2023-07-20T08:38:24;98188.13;;;23.42;35.65
62655;BME280;48717;55.556;37.816;2023-07-20T08:40:51;98167.09;;;23.25;36.61
62655;BME280;48717;55.556;37.816;2023-07-20T08:43:23;98165.22;;;22.79;37.34
62655;BME280;48717;55.556;37.816;2023-07-20T08:45:59;98167.84;;;23.38;36.88
62655;BME280;48717;55.556;37.816;2023-07-20T08:48:30;98171.00;;;23.32;36.77
62655;BME280;48717;55.556;37.816;2023-07-20T08:51:00;98147.03;;;22.72;38.31
62655;BME280;48717;55.556;37.816;2023-07-20T08:53:29;98130.41;;;22.55;37.35
62655;BME280;48717;55.556;37.816;2023-07-20T08:55:59;98149.13;;;23.25;37.04
62655;BME280;48717;55.556;37.816;2023-07-20T08:58:27;98158.72;;;24.60;35.00
62655;BME280;48717;55.556;37.816;2023-07-20T09:00:58;98172.44;;;25.92;33.59
62655;BME280;48717;55.556;37.816;2023-07-20T09:03:26;98165.66;;;26.07;32.95
62655;BME280;48717;55.556;37.816;2023-07-20T09:05:54;98151.84;;;25.81;33.13
62655;BME280;48717;55.556;37.816;2023-07-20T09:08:21;98173.34;;;25.51;33.03
62655;BME280;48717;55.556;37.816;2023-07-20T09:10:48;98171.13;;;24.30;35.40
62655;BME280;48717;55.556;37.816;2023-07-20T09:13:16;98184.69;;;23.40;37.27
62655;BME280;48717;55.556;37.816;2023-07-20T09:15:47;98185.59;;;22.59;39.47
62655;BME280;48717;55.556;37.816;2023-07-20T09:18:24;98183.03;;;21.60;41.53
62655;BME280;48717;55.556;37.816;2023-07-20T09:20:52;98164.91;;;21.63;40.88
62655;BME280;48717;55.556;37.816;2023-07-20T09:23:19;98195.47;;;22.23;40.11
62655;BME280;48717;55.556;37.816;2023-07-20T09:25:48;98191.50;;;22.76;38.98
62655;BME280;48717;55.556;37.816;2023-07-20T09:28:17;98175.91;;;23.38;38.16
62655;BME280;48717;55.556;37.816;2023-07-20T09:30:45;98170.22;;;24.08;37.19
62655;BME280;48717;55.556;37.816;2023-07-20T09:33:23;98196.56;;;24.59;36.57
62655;BME280;48717;55.556;37.816;2023-07-20T09:35:54;98188.66;;;24.24;37.46
62655;BME280;48717;55.556;37.816;2023-07-20T09:38:22;98175.88;;;23.04;39.90
62655;BME280;48717;55.556;37.816;2023-07-20T09:40:50;98181.25;;;22.09;41.76
62655;BME280;48717;55.556;37.816;2023-07-20T09:43:22;98196.09;;;22.62;42.25
62655;BME280;48717;55.556;37.816;2023-07-20T09:45:57;98171.25;;;23.06;40.86
62655;BME280;48717;55.556;37.816;2023-07-20T09:48:25;98194.84;;;23.48;40.61
62655;BME280;48717;55.556;37.816;2023-07-20T09:50:59;98197.88;;;23.32;40.86
62655;BME280;48717;55.556;37.816;2023-07-20T09:53:27;98203.97;;;23.23;41.18
62655;BME280;48717;55.556;37.816;2023-07-20T09:55:56;98200.06;;;23.27;40.90
62655;BME280;48717;55.556;37.816;2023-07-20T09:58:25;98193.72;;;23.16;41.42
62655;BME280;48717;55.556;37.816;2023-07-20T10:00:56;98223.25;;;22.82;41.57
62655;BME280;48717;55.556;37.816;2023-07-20T10:03:28;98180.75;;;22.76;40.75
62655;BME280;48717;55.556;37.816;2023-07-20T10:06:06;98192.72;;;22.83;40.71
62655;BME280;48717;55.556;37.816;2023-07-20T10:08:38;98197.84;;;23.09;39.66
62655;BME280;48717;55.556;37.816;2023-07-20T10:11:11;98181.56;;;23.79;40.02
62655;BME280;48717;55.556;37.816;2023-07-20T10:13:43;98205.38;;;23.95;37.82
62655;BME280;48717;55.556;37.816;2023-07-20T10:16:17;98152.41;;;24.29;37.84
62655;BME280;48717;55.556;37.816;2023-07-20T10:19:07;98173.56;;;24.55;36.81
62655;BME280;48717;55.556;37.816;2023-07-20T10:21:42;98176.50;;;23.97;39.15
62655;BME280;48717;55.556;37.816;2023-07-20T10:24:23;98182.09;;;24.17;37.98
62655;BME280;48717;55.556;37.816;2023-07-20T10:26:52;98203.09;;;23.79;39.05
62655;BME280;48717;55.556;37.816;2023-07-20T10:29:23;98196.06;;;23.21;40.84
62655;BME280;48717;55.556;37.816;2023-07-20T10:31:56;98193.94;;;22.90;41.35
62655;BME280;48717;55.556;37.816;2023-07-20T10:34:27;98191.50;;;22.99;41.50
62655;BME280;48717;55.556;37.816;2023-07-20T10:37:04;98177.09;;;24.01;39.77
62655;BME280;48717;55.556;37.816;2023-07-20T10:40:27;98190.13;;;24.71;38.46
62655;BME280;48717;55.556;37.816;2023-07-20T10:43:09;98185.13;;;24.45;39.72
62655;BME280;48717;55.556;37.816;2023-07-20T10:45:39;98188.66;;;24.24;38.84
62655;BME280;48717;55.556;37.816;2023-07-20T10:50:48;98178.91;;;24.45;39.11
62655;BME280;48717;55.556;37.816;2023-07-20T10:53:48;98193.97;;;24.15;35.45
62655;BME280;48717;55.556;37.816;2023-07-20T10:56:21;98190.53;;;24.45;36.32
62655;BME280;48717;55.556;37.816;2023-07-20T10:58:49;98078.72;;;23.20;38.45
62655;BME280;48717;55.556;37.816;2023-07-20T11:01:17;98169.50;;;23.05;40.46
62655;BME280;48717;55.556;37.816;2023-07-20T11:03:49;98193.34;;;22.87;41.16
62655;BME280;48717;55.556;37.816;2023-07-20T11:08:56;98210.56;;;22.12;42.99
62655;BME280;48717;55.556;37.816;2023-07-20T11:11:35;98180.38;;;21.84;43.17
62655;BME280;48717;55.556;37.816;2023-07-20T11:14:08;98193.88;;;22.56;40.84
62655;BME280;48717;55.556;37.816;2023-07-20T11:16:46;98174.88;;;22.82;42.03
62655;BME280;48717;55.556;37.816;2023-07-20T11:19:18;98213.66;;;21.82;47.19
62655;BME280;48717;55.556;37.816;2023-07-20T11:21:53;98199.09;;;21.22;49.33
62655;BME280;48717;55.556;37.816;2023-07-20T11:24:27;98142.75;;;21.35;48.82
62655;BME280;48717;55.556;37.816;2023-07-20T11:26:55;98208.81;;;21.49;47.59
62655;BME280;48717;55.556;37.816;2023-07-20T11:29:23;98204.22;;;21.38;45.66
62655;BME280;48717;55.556;37.816;2023-07-20T11:32:02;98169.63;;;22.33;43.11
62655;BME280;48717;55.556;37.816;2023-07-20T11:34:33;98238.78;;;22.54;42.09
62655;BME280;48717;55.556;37.816;2023-07-20T11:37:01;98216.72;;;22.26;42.90
62655;BME280;48717;55.556;37.816;2023-07-20T11:39:32;98204.22;;;21.76;42.60
62655;BME280;48717;55.556;37.816;2023-07-20T11:41:59;98200.19;;;21.57;43.37
62655;BME280;48717;55.556;37.816;2023-07-20T11:44:27;98233.03;;;21.48;43.91
62655;BME280;48717;55.556;37.816;2023-07-20T11:47:07;98239.50;;;21.32;44.09
62655;BME280;48717;55.556;37.816;2023-07-20T11:49:40;98244.63;;;21.09;45.01
62655;BME280;48717;55.556;37.816;2023-07-20T11:52:10;98204.34;;;21.24;44.18
62655;BME280;48717;55.556;37.816;2023-07-20T11:54:38;98230.63;;;21.82;43.99
62655;BME280;48717;55.556;37.816;2023-07-20T11:57:06;98213.09;;;22.63;42.20
62655;BME280;48717;55.556;37.816;2023-07-20T11:59:34;98207.66;;;24.44;38.56
62655;BME280;48717;55.556;37.816;2023-07-20T12:02:02;98189.19;;;25.76;36.62
62655;BME280;48717;55.556;37.816;2023-07-20T12:04:31;98190.53;;;26.41;33.92
62655;BME280;48717;55.556;37.816;2023-07-20T12:07:00;98186.09;;;26.79;33.19
62655;BME280;48717;55.556;37.816;2023-07-20T12:09:27;98189.34;;;26.73;32.08
62655;BME280;48717;55.556;37.816;2023-07-20T12:12:12;98203.72;;;26.24;32.17
62655;BME280;48717;55.556;37.816;2023-07-20T12:14:39;98203.72;;;25.94;32.85
62655;BME280;48717;55.556;37.816;2023-07-20T12:17:08;98231.91;;;24.44;36.19
62655;BME280;48717;55.556;37.816;2023-07-20T12:19:39;98201.31;;;23.34;37.69
62655;BME280;48717;55.556;37.816;2023-07-20T12:22:07;98213.50;;;22.92;39.10
62655;BME280;48717;55.556;37.816;2023-07-20T12:24:34;98223.94;;;22.73;40.81
62655;BME280;48717;55.556;37.816;2023-07-20T12:27:03;98221.22;;;22.25;44.94
62655;BME280;48717;55.556;37.816;2023-07-20T12:29:31;98228.25;;;21.90;46.50
62655;BME280;48717;55.556;37.816;2023-07-20T12:32:04;98205.03;;;21.89;47.13
62655;BME280;48717;55.556;37.816;2023-07-20T12:34:32;98229.38;;;22.24;46.85
62655;BME280;48717;55.556;37.816;2023-07-20T12:37:03;98204.78;;;22.41;46.46
62655;BME280;48717;55.556;37.816;2023-07-20T12:39:30;98217.97;;;22.80;46.18
62655;BME280;48717;55.556;37.816;2023-07-20T12:41:57;98216.44;;;23.12;45.51
62655;BME280;48717;55.556;37.816;2023-07-20T12:44:25;98206.66;;;23.68;44.33
62655;BME280;48717;55.556;37.816;2023-07-20T12:46:52;98173.88;;;23.75;41.85
62655;BME280;48717;55.556;37.816;2023-07-20T12:49:19;98191.53;;;23.67;42.50
62655;BME280;48717;55.556;37.816;2023-07-20T12:51:46;98193.59;;;23.06;42.60
62655;BME280;48717;55.556;37.816;2023-07-20T12:54:14;98199.91;;;22.35;44.22
62655;BME280;48717;55.556;37.816;2023-07-20T12:56:41;98191.59;;;21.78;46.32
62655;BME280;48717;55.556;37.816;2023-07-20T12:59:11;98218.41;;;21.15;50.34
62655;BME280;48717;55.556;37.816;2023-07-20T13:01:38;98197.03;;;20.61;53.88
62655;BME280;48717;55.556;37.816;2023-07-20T13:04:08;98233.19;;;20.41;54.29
62655;BME280;48717;55.556;37.816;2023-07-20T13:06:38;98225.78;;;20.31;54.14
62655;BME280;48717;55.556;37.816;2023-07-20T13:09:24;98165.13;;;19.90;53.18
62655;BME280;48717;55.556;37.816;2023-07-20T13:11:54;98207.44;;;20.25;52.72
62655;BME280;48717;55.556;37.816;2023-07-20T13:14:54;98221.75;;;20.65;52.07
62655;BME280;48717;55.556;37.816;2023-07-20T13:17:24;98188.13;;;20.86;50.39
62655;BME280;48717;55.556;37.816;2023-07-20T13:19:55;98217.91;;;21.73;49.36
62655;BME280;48717;55.556;37.816;2023-07-20T13:22:22;98233.84;;;23.42;46.35